createdAt,value
2022-08-27T00:00:24.125Z,87.40
2022-08-27T00:01:24.120Z,87.00
2022-08-27T00:02:24.157Z,87.30
2022-08-27T00:03:24.097Z,87.20
2022-08-27T00:04:24.171Z,87.00
2022-08-27T00:05:24.087Z,86.50
2022-08-27T00:06:24.101Z,86.30
2022-08-27T00:07:24.064Z,86.40
2022-08-27T00:08:24.071Z,86.50
2022-08-27T00:09:27.022Z,85.99
2022-08-27T00:10:25.048Z,85.89
2022-08-27T00:11:24.070Z,85.69
2022-08-27T00:12:24.043Z,86.50
2022-08-27T00:13:24.024Z,85.89
2022-08-27T00:14:24.006Z,85.89
2022-08-27T00:15:24.055Z,85.89
2022-08-27T00:16:24.096Z,85.80
2022-08-27T00:17:24.009Z,85.69
2022-08-27T00:18:23.982Z,85.99
2022-08-27T00:19:23.991Z,86.30
2022-08-27T00:20:23.985Z,86.74
2022-08-27T00:21:24.018Z,86.44
2022-08-27T00:22:23.975Z,86.84
2022-08-27T00:23:23.966Z,87.04
2022-08-27T00:24:23.942Z,87.54
2022-08-27T00:25:23.943Z,87.64
2022-08-27T00:26:23.979Z,87.34
2022-08-27T00:27:23.917Z,87.24
2022-08-27T00:28:23.935Z,86.84
2022-08-27T00:29:23.918Z,86.64
2022-08-27T00:30:23.900Z,87.04
2022-08-27T00:31:27.461Z,87.64
2022-08-27T00:32:23.892Z,87.88
2022-08-27T00:33:24.119Z,88.29
2022-08-27T00:34:23.873Z,88.29
2022-08-27T00:35:23.872Z,88.68
2022-08-27T00:36:23.866Z,88.48
2022-08-27T00:37:23.881Z,88.29
2022-08-27T00:38:23.837Z,87.88
2022-08-27T00:39:23.862Z,87.98
2022-08-27T00:40:23.852Z,87.58
2022-08-27T00:41:23.835Z,87.54
2022-08-27T00:42:23.835Z,87.64
2022-08-27T00:43:23.829Z,87.58
2022-08-27T00:44:23.805Z,87.24
2022-08-27T00:45:23.859Z,87.44
2022-08-27T00:46:23.782Z,87.34
2022-08-27T00:47:23.805Z,87.04
2022-08-27T00:48:23.781Z,86.94
2022-08-27T00:49:23.792Z,86.84
2022-08-27T00:50:23.747Z,86.74
2022-08-27T00:51:23.761Z,86.74
2022-08-27T00:52:23.782Z,86.64
2022-08-27T00:53:23.740Z,86.64
2022-08-27T00:54:23.740Z,86.74
2022-08-27T00:55:23.726Z,86.64
2022-08-27T00:56:23.734Z,86.94
2022-08-27T00:57:23.771Z,86.64
2022-08-27T00:58:23.718Z,87.04
2022-08-27T00:59:23.691Z,86.44
2022-08-27T01:00:23.701Z,86.54
2022-08-27T01:01:23.708Z,86.50
2022-08-27T01:02:23.770Z,86.24
2022-08-27T01:03:23.678Z,86.10
2022-08-27T01:04:23.679Z,86.19
2022-08-27T01:05:23.657Z,85.69
2022-08-27T01:06:23.690Z,85.80
2022-08-27T01:07:23.646Z,85.99
2022-08-27T01:08:23.763Z,85.99
2022-08-27T01:09:23.724Z,85.69
2022-08-27T01:10:23.649Z,86.10
2022-08-27T01:11:23.648Z,85.49
2022-08-27T01:12:23.618Z,85.69
2022-08-27T01:13:58.883Z,85.39
2022-08-27T01:14:24.595Z,85.60
2022-08-27T01:15:23.597Z,85.99
2022-08-27T01:16:23.609Z,85.80
2022-08-27T01:17:23.588Z,85.89
2022-08-27T01:18:23.608Z,85.30
2022-08-27T01:19:23.586Z,85.10
2022-08-27T01:20:23.561Z,85.49
2022-08-27T01:21:23.561Z,85.49
2022-08-27T01:22:23.565Z,85.55
2022-08-27T01:23:23.552Z,85.39
2022-08-27T01:24:23.533Z,85.30
2022-08-27T01:25:23.558Z,85.10
2022-08-27T01:26:23.619Z,85.69
2022-08-27T01:27:23.517Z,85.89
2022-08-27T01:28:23.731Z,85.69
2022-08-27T01:29:24.492Z,85.69
2022-08-27T01:30:23.586Z,85.69
2022-08-27T01:31:23.538Z,85.39
2022-08-27T01:32:23.477Z,85.60
2022-08-27T01:33:23.500Z,85.60
2022-08-27T01:34:23.465Z,85.49
2022-08-27T01:35:23.449Z,85.39
2022-08-27T01:36:23.434Z,85.69
2022-08-27T01:37:24.452Z,85.69
2022-08-27T01:38:30.642Z,85.49
2022-08-27T01:39:24.532Z,85.49
2022-08-27T01:40:23.506Z,85.49
2022-08-27T01:41:23.440Z,85.69
2022-08-27T01:42:23.407Z,85.69
2022-08-27T01:43:23.409Z,85.60
2022-08-27T01:44:23.409Z,85.39
2022-08-27T01:45:23.488Z,85.49
2022-08-27T01:46:23.512Z,85.49
2022-08-27T01:47:23.392Z,85.69
2022-08-27T01:48:24.421Z,85.19
2022-08-27T01:49:23.377Z,85.49
2022-08-27T01:50:23.419Z,85.39
2022-08-27T01:51:23.356Z,85.60
2022-08-27T01:52:23.335Z,85.69
2022-08-27T01:53:23.578Z,85.60
2022-08-27T01:54:23.357Z,85.53
2022-08-27T01:55:23.342Z,85.39
2022-08-27T01:56:23.329Z,85.49
2022-08-27T01:57:26.025Z,85.39
2022-08-27T01:58:24.296Z,85.44
2022-08-27T01:59:23.313Z,85.44
2022-08-27T02:00:24.274Z,85.03
2022-08-27T02:01:23.312Z,85.13
2022-08-27T02:02:23.381Z,85.33
2022-08-27T02:03:23.379Z,85.03
2022-08-27T02:04:23.270Z,85.63
2022-08-27T02:05:23.246Z,84.83
2022-08-27T02:06:23.249Z,85.53
2022-08-27T02:07:23.223Z,85.24
2022-08-27T02:08:23.226Z,85.44
2022-08-27T02:09:23.271Z,84.83
2022-08-27T02:10:23.213Z,85.63
2022-08-27T02:11:23.193Z,85.44
2022-08-27T02:12:23.197Z,85.44
2022-08-27T02:13:23.187Z,85.33
2022-08-27T02:14:23.231Z,85.68
2022-08-27T02:15:23.172Z,85.63
2022-08-27T02:16:23.223Z,85.44
2022-08-27T02:17:23.149Z,85.63
2022-08-27T02:18:23.146Z,85.53
2022-08-27T02:19:23.132Z,85.53
2022-08-27T02:20:24.153Z,85.53
2022-08-27T02:21:24.125Z,85.03
2022-08-27T02:22:23.113Z,85.53
2022-08-27T02:23:23.126Z,85.53
2022-08-27T02:24:23.101Z,85.44
2022-08-27T02:25:23.131Z,85.63
2022-08-27T02:26:23.164Z,85.53
2022-08-27T02:27:23.130Z,85.53
2022-08-27T02:28:23.063Z,85.33
2022-08-27T02:29:23.058Z,85.63
2022-08-27T02:30:23.079Z,85.68
2022-08-27T02:31:23.256Z,85.24
2022-08-27T02:32:31.696Z,85.53
2022-08-27T02:33:24.031Z,85.24
2022-08-27T02:34:23.097Z,85.44
2022-08-27T02:35:23.065Z,84.93
2022-08-27T02:36:23.020Z,85.13
2022-08-27T02:37:23.013Z,84.74
2022-08-27T02:38:23.008Z,84.83
2022-08-27T02:39:22.989Z,84.83
2022-08-27T02:40:23.061Z,84.83
2022-08-27T02:41:22.997Z,85.03
2022-08-27T02:42:22.974Z,84.83
2022-08-27T02:43:24.871Z,84.83
2022-08-27T02:44:22.954Z,84.83
2022-08-27T02:45:23.017Z,85.63
2022-08-27T02:46:22.974Z,85.53
2022-08-27T02:47:22.964Z,85.44
2022-08-27T02:48:22.935Z,84.83
2022-08-27T02:49:22.948Z,85.53
2022-08-27T02:50:27.463Z,85.27
2022-08-27T02:51:22.896Z,85.63
2022-08-27T02:52:24.982Z,85.33
2022-08-27T02:53:22.894Z,85.03
2022-08-27T02:54:22.870Z,84.83
2022-08-27T02:55:22.884Z,85.44
2022-08-27T02:56:22.927Z,85.44
2022-08-27T02:57:22.865Z,85.58
2022-08-27T02:58:22.872Z,85.47
2022-08-27T02:59:23.852Z,85.33
2022-08-27T03:00:22.839Z,85.53
2022-08-27T03:01:22.896Z,84.93
2022-08-27T03:02:22.917Z,85.03
2022-08-27T03:03:22.821Z,85.47
2022-08-27T03:04:22.833Z,85.74
2022-08-27T03:05:22.815Z,85.53
2022-08-27T03:06:22.817Z,85.78
2022-08-27T03:07:22.823Z,85.47
2022-08-27T03:08:22.784Z,85.74
2022-08-27T03:09:22.776Z,85.78
2022-08-27T03:10:22.769Z,85.47
2022-08-27T03:11:22.791Z,85.47
2022-08-27T03:12:24.746Z,85.68
2022-08-27T03:13:22.750Z,85.78
2022-08-27T03:14:22.775Z,85.88
2022-08-27T03:15:22.731Z,85.58
2022-08-27T03:16:22.835Z,85.97
2022-08-27T03:17:22.740Z,85.78
2022-08-27T03:18:22.716Z,85.97
2022-08-27T03:19:24.002Z,86.08
2022-08-27T03:20:22.699Z,85.78
2022-08-27T03:21:22.723Z,85.78
2022-08-27T03:22:22.757Z,85.68
2022-08-27T03:23:22.693Z,85.97
2022-08-27T03:24:22.707Z,85.97
2022-08-27T03:25:22.684Z,85.88
2022-08-27T03:26:22.669Z,85.68
2022-08-27T03:27:22.663Z,85.68
2022-08-27T03:28:23.750Z,85.68
2022-08-27T03:29:22.637Z,85.88
2022-08-27T03:30:22.636Z,86.08
2022-08-27T03:31:22.661Z,85.74
2022-08-27T03:32:22.645Z,85.38
2022-08-27T03:33:22.635Z,86.08
2022-08-27T03:34:22.610Z,86.08
2022-08-27T03:35:22.595Z,86.08
2022-08-27T03:36:22.596Z,85.78
2022-08-27T03:37:22.628Z,85.78
2022-08-27T03:38:22.581Z,86.22
2022-08-27T03:39:22.563Z,86.18
2022-08-27T03:40:22.620Z,86.82
2022-08-27T03:41:22.569Z,86.72
2022-08-27T03:42:22.585Z,87.02
2022-08-27T03:43:22.550Z,87.73
2022-08-27T03:44:22.537Z,87.46
2022-08-27T03:45:23.573Z,87.46
2022-08-27T03:46:22.540Z,88.07
2022-08-27T03:47:22.505Z,88.07
2022-08-27T03:48:22.545Z,88.02
2022-08-27T03:49:22.512Z,88.27
2022-08-27T03:50:22.486Z,88.37
2022-08-27T03:51:22.481Z,88.67
2022-08-27T03:52:22.480Z,88.37
2022-08-27T03:53:22.509Z,88.27
2022-08-27T03:54:22.465Z,87.57
2022-08-27T03:55:22.478Z,88.27
2022-08-27T03:56:22.539Z,88.27
2022-08-27T03:57:22.436Z,88.17
2022-08-27T03:58:22.447Z,87.87
2022-08-27T03:59:22.442Z,87.87
2022-08-27T04:00:22.584Z,88.27
2022-08-27T04:01:22.505Z,88.37
2022-08-27T04:02:22.437Z,88.57
2022-08-27T04:03:22.420Z,88.77
2022-08-27T04:04:22.573Z,88.57
2022-08-27T04:05:22.425Z,88.47
2022-08-27T04:06:22.383Z,88.37
2022-08-27T04:07:22.372Z,88.67
2022-08-27T04:08:22.417Z,88.87
2022-08-27T04:09:22.358Z,88.77
2022-08-27T04:10:22.351Z,88.57
2022-08-27T04:11:22.336Z,88.77
2022-08-27T04:12:22.338Z,88.57
2022-08-27T04:13:22.446Z,88.67
2022-08-27T04:14:26.638Z,88.77
2022-08-27T04:15:22.323Z,88.97
2022-08-27T04:16:22.430Z,88.87
2022-08-27T04:17:22.310Z,88.87
2022-08-27T04:18:22.463Z,88.97
2022-08-27T04:19:26.951Z,88.97
2022-08-27T04:20:35.102Z,89.22
2022-08-27T04:21:24.277Z,89.22
2022-08-27T04:22:22.264Z,89.31
2022-08-27T04:23:22.263Z,89.27
2022-08-27T04:24:22.320Z,89.72
2022-08-27T04:25:22.257Z,89.62
2022-08-27T04:26:22.246Z,89.72
2022-08-27T04:27:22.241Z,89.92
2022-08-27T04:28:22.234Z,89.31
2022-08-27T04:29:22.268Z,89.42
2022-08-27T04:30:22.210Z,89.31
2022-08-27T04:31:22.244Z,89.42
2022-08-27T04:32:22.206Z,89.37
2022-08-27T04:33:22.188Z,89.37
2022-08-27T04:34:22.179Z,89.82
2022-08-27T04:35:22.230Z,89.92
2022-08-27T04:36:22.173Z,90.72
2022-08-27T04:37:22.163Z,90.32
2022-08-27T04:38:22.185Z,90.02
2022-08-27T04:39:22.152Z,90.62
2022-08-27T04:40:22.269Z,90.22
2022-08-27T04:41:22.124Z,90.52
2022-08-27T04:42:23.139Z,90.72
2022-08-27T04:43:22.131Z,90.72
2022-08-27T04:44:22.130Z,90.46
2022-08-27T04:45:22.107Z,90.86
2022-08-27T04:46:22.209Z,91.06
2022-08-27T04:47:22.102Z,90.66
2022-08-27T04:48:22.108Z,90.97
2022-08-27T04:49:22.075Z,90.56
2022-08-27T04:50:22.070Z,90.22
2022-08-27T04:51:22.108Z,90.32
2022-08-27T04:52:22.057Z,90.72
2022-08-27T04:53:22.172Z,90.12
2022-08-27T04:54:22.536Z,90.12
2022-08-27T04:55:23.289Z,90.12
2022-08-27T04:56:22.033Z,90.02
2022-08-27T04:57:22.076Z,89.92
2022-08-27T04:58:22.006Z,89.67
2022-08-27T04:59:22.018Z,89.51
2022-08-27T05:00:21.999Z,89.72
2022-08-27T05:01:22.030Z,91.02
2022-08-27T05:02:22.019Z,89.78
2022-08-27T05:03:21.976Z,90.16
2022-08-27T05:04:21.965Z,90.86
2022-08-27T05:05:21.988Z,91.47
2022-08-27T05:06:21.967Z,92.27
2022-08-27T05:07:21.945Z,91.67
2022-08-27T05:08:21.982Z,90.62
2022-08-27T05:09:21.922Z,90.52
2022-08-27T05:10:21.914Z,90.12
2022-08-27T05:11:21.924Z,90.62
2022-08-27T05:12:21.917Z,90.92
2022-08-27T05:13:21.994Z,89.92
2022-08-27T05:14:21.889Z,90.52
2022-08-27T05:15:21.886Z,90.42
2022-08-27T05:16:21.962Z,90.92
2022-08-27T05:17:21.862Z,90.86
2022-08-27T05:18:21.862Z,91.06
2022-08-27T05:19:21.906Z,91.06
2022-08-27T05:20:21.841Z,90.97
2022-08-27T05:21:21.841Z,90.62
2022-08-27T05:22:21.838Z,90.72
2022-08-27T05:23:21.820Z,90.32
2022-08-27T05:24:21.871Z,90.22
2022-08-27T05:25:21.816Z,90.52
2022-08-27T05:26:21.805Z,90.82
2022-08-27T05:27:21.802Z,90.86
2022-08-27T05:28:21.800Z,90.86
2022-08-27T05:29:22.831Z,91.82
2022-08-27T05:30:21.777Z,92.07
2022-08-27T05:31:21.821Z,92.11
2022-08-27T05:32:21.766Z,92.17
2022-08-27T05:33:21.751Z,92.37
2022-08-27T05:34:24.662Z,91.97
2022-08-27T05:35:21.798Z,91.77
2022-08-27T05:36:21.733Z,91.17
2022-08-27T05:37:21.722Z,92.37
2022-08-27T05:38:21.767Z,92.37
2022-08-27T05:39:21.710Z,91.97
2022-08-27T05:40:21.899Z,92.17
2022-08-27T05:41:21.814Z,91.77
2022-08-27T05:42:21.798Z,91.97
2022-08-27T05:43:21.676Z,91.87
2022-08-27T05:44:40.741Z,92.57
2022-08-27T05:45:23.719Z,91.97
2022-08-27T05:46:22.476Z,91.32
2022-08-27T05:47:21.641Z,92.23
2022-08-27T05:48:21.657Z,91.93
2022-08-27T05:49:21.802Z,91.52
2022-08-27T05:50:23.644Z,91.42
2022-08-27T05:51:25.591Z,91.02
2022-08-27T05:52:21.615Z,91.02
2022-08-27T05:53:21.597Z,90.92
2022-08-27T05:54:21.589Z,90.52
2022-08-27T05:55:21.591Z,90.02
2022-08-27T05:56:21.631Z,90.86
2022-08-27T05:57:21.568Z,90.92
2022-08-27T05:58:21.559Z,90.97
2022-08-27T05:59:21.566Z,92.03
2022-08-27T06:00:21.548Z,91.27
2022-08-27T06:01:21.540Z,91.02
2022-08-27T06:02:21.725Z,92.23
2022-08-27T06:03:21.530Z,91.13
2022-08-27T06:04:21.545Z,90.72
2022-08-27T06:05:21.590Z,90.17
2022-08-27T06:06:21.557Z,90.28
2022-08-27T06:07:21.579Z,90.68
2022-08-27T06:08:21.494Z,90.42
2022-08-27T06:09:21.503Z,90.28
2022-08-27T06:10:21.480Z,90.98
2022-08-27T06:11:21.471Z,89.98
2022-08-27T06:12:28.317Z,89.87
2022-08-27T06:13:22.497Z,89.87
2022-08-27T06:14:21.476Z,89.37
2022-08-27T06:15:21.446Z,90.08
2022-08-27T06:16:21.457Z,89.78
2022-08-27T06:17:21.425Z,89.98
2022-08-27T06:18:21.522Z,89.87
2022-08-27T06:19:21.420Z,90.72
2022-08-27T06:20:21.409Z,90.88
2022-08-27T06:21:24.450Z,89.67
2022-08-27T06:22:21.397Z,89.58
2022-08-27T06:23:28.079Z,89.47
2022-08-27T06:24:22.451Z,89.27
2022-08-27T06:25:21.367Z,89.33
2022-08-27T06:26:21.372Z,88.83
2022-08-27T06:27:21.353Z,89.43
2022-08-27T06:28:21.357Z,88.73
2022-08-27T06:29:21.385Z,88.18
2022-08-27T06:30:21.330Z,87.98
2022-08-27T06:31:21.399Z,87.28
2022-08-27T06:32:21.321Z,87.64
2022-08-27T06:33:21.305Z,87.18
2022-08-27T06:34:21.294Z,87.38
2022-08-27T06:35:22.389Z,86.88
2022-08-27T06:36:21.290Z,86.54
2022-08-27T06:37:21.292Z,86.78
2022-08-27T06:38:21.283Z,86.64
2022-08-27T06:39:21.356Z,86.64
2022-08-27T06:40:21.377Z,86.04
2022-08-27T06:41:23.673Z,85.63
2022-08-27T06:42:21.249Z,86.24
2022-08-27T06:43:25.020Z,85.49
2022-08-27T06:44:22.255Z,85.30
2022-08-27T06:45:21.229Z,84.89
2022-08-27T06:46:21.330Z,84.29
2022-08-27T06:47:21.384Z,84.05
2022-08-27T06:48:21.208Z,84.45
2022-08-27T06:49:21.207Z,83.25
2022-08-27T06:50:25.420Z,83.49
2022-08-27T06:51:23.234Z,83.09
2022-08-27T06:52:21.188Z,83.75
2022-08-27T06:53:24.359Z,83.19
2022-08-27T06:54:21.171Z,83.09
2022-08-27T06:55:21.167Z,83.19
2022-08-27T06:56:22.141Z,83.59
2022-08-27T06:57:21.135Z,83.15
2022-08-27T06:58:21.144Z,82.95
2022-08-27T06:59:21.135Z,82.75
2022-08-27T07:00:21.114Z,81.55
2022-08-27T07:01:21.406Z,82.45
2022-08-27T07:02:21.230Z,81.91
2022-08-27T07:03:21.092Z,81.51
2022-08-27T07:04:21.101Z,81.74
2022-08-27T07:05:21.085Z,81.65
2022-08-27T07:06:21.079Z,82.21
2022-08-27T07:07:31.803Z,81.71
2022-08-27T07:08:22.088Z,81.51
2022-08-27T07:09:21.104Z,82.15
2022-08-27T07:10:21.043Z,81.65
2022-08-27T07:11:21.053Z,81.65
2022-08-27T07:12:21.028Z,82.55
2022-08-27T07:13:21.061Z,83.49
2022-08-27T07:14:21.021Z,82.65
2022-08-27T07:15:22.161Z,82.89
2022-08-27T07:16:23.253Z,82.89
2022-08-27T07:17:21.014Z,82.09
2022-08-27T07:18:21.004Z,82.75
2022-08-27T07:19:22.017Z,82.85
2022-08-27T07:20:20.977Z,80.74
2022-08-27T07:21:21.040Z,81.01
2022-08-27T07:22:21.016Z,81.11
2022-08-27T07:23:21.056Z,81.30
2022-08-27T07:24:20.957Z,79.97
2022-08-27T07:25:21.040Z,79.33
2022-08-27T07:26:20.947Z,78.93
2022-08-27T07:27:20.985Z,79.03
2022-08-27T07:28:20.930Z,78.13
2022-08-27T07:29:20.921Z,78.43
2022-08-27T07:30:20.911Z,77.99
2022-08-27T07:31:20.987Z,77.89
2022-08-27T07:32:20.891Z,77.99
2022-08-27T07:33:20.927Z,77.59
2022-08-27T07:34:20.884Z,77.36
2022-08-27T07:35:21.870Z,77.02
2022-08-27T07:36:20.865Z,75.18
2022-08-27T07:37:20.861Z,76.08
2022-08-27T07:38:20.891Z,75.38
2022-08-27T07:39:20.847Z,74.58
2022-08-27T07:40:20.894Z,73.65
2022-08-27T07:41:20.835Z,73.75
2022-08-27T07:42:20.826Z,73.25
2022-08-27T07:43:20.888Z,73.39
2022-08-27T07:44:20.814Z,74.29
2022-08-27T07:45:20.811Z,73.15
2022-08-27T07:46:20.857Z,73.65
2022-08-27T07:47:20.796Z,73.35
2022-08-27T07:48:20.823Z,72.92
2022-08-27T07:49:20.786Z,73.11
2022-08-27T07:50:20.775Z,72.72
2022-08-27T07:51:20.751Z,73.02
2022-08-27T07:52:23.581Z,72.92
2022-08-27T07:53:22.799Z,73.22
2022-08-27T07:54:20.749Z,72.95
2022-08-27T07:55:20.748Z,73.45
2022-08-27T07:56:20.745Z,72.85
2022-08-27T07:57:20.727Z,73.15
2022-08-27T07:58:20.817Z,71.82
2022-08-27T07:59:20.730Z,72.95
2022-08-27T08:00:21.701Z,72.85
2022-08-27T08:01:20.756Z,72.85
2022-08-27T08:02:20.746Z,72.95
2022-08-27T08:03:20.705Z,72.42
2022-08-27T08:04:20.820Z,72.42
2022-08-27T08:05:20.667Z,72.52
2022-08-27T08:06:21.663Z,72.02
2022-08-27T08:07:20.650Z,72.62
2022-08-27T08:08:20.681Z,71.95
2022-08-27T08:09:20.851Z,72.55
2022-08-27T08:10:20.648Z,72.85
2022-08-27T08:11:20.648Z,72.75
2022-08-27T08:12:26.340Z,73.19
2022-08-27T08:13:21.710Z,72.49
2022-08-27T08:14:20.729Z,73.22
2022-08-27T08:15:20.616Z,73.52
2022-08-27T08:16:20.693Z,74.32
2022-08-27T08:17:20.630Z,73.42
2022-08-27T08:18:20.581Z,73.52
2022-08-27T08:19:20.594Z,73.62
2022-08-27T08:20:31.269Z,74.12
2022-08-27T08:21:22.555Z,74.02
2022-08-27T08:22:20.556Z,73.62
2022-08-27T08:23:20.560Z,73.72
2022-08-27T08:24:20.578Z,73.22
2022-08-27T08:25:20.534Z,73.42
2022-08-27T08:26:20.521Z,73.58
2022-08-27T08:27:20.540Z,72.99
2022-08-27T08:28:20.532Z,73.12
2022-08-27T08:29:20.518Z,74.12
2022-08-27T08:30:21.532Z,73.75
2022-08-27T08:31:20.540Z,73.56
2022-08-27T08:32:20.489Z,74.19
2022-08-27T08:33:20.461Z,74.39
2022-08-27T08:34:20.549Z,74.99
2022-08-27T08:35:20.445Z,75.52
2022-08-27T08:36:20.444Z,75.19
2022-08-27T08:37:20.441Z,74.59
2022-08-27T08:38:20.433Z,75.29
2022-08-27T08:39:20.458Z,74.99
2022-08-27T08:40:20.746Z,75.49
2022-08-27T08:41:20.415Z,74.99
2022-08-27T08:42:20.434Z,75.19
2022-08-27T08:43:20.484Z,74.96
2022-08-27T08:44:20.405Z,73.75
2022-08-27T08:45:20.404Z,73.62
2022-08-27T08:46:20.424Z,72.59
2022-08-27T08:47:20.379Z,72.09
2022-08-27T08:48:20.367Z,73.12
2022-08-27T08:49:20.340Z,73.02
2022-08-27T08:50:21.475Z,72.39
2022-08-27T08:51:20.343Z,72.69
2022-08-27T08:52:31.388Z,71.52
2022-08-27T08:53:21.324Z,73.46
2022-08-27T08:54:20.311Z,74.12
2022-08-27T08:55:20.331Z,73.02
2022-08-27T08:56:20.297Z,73.12
2022-08-27T08:57:20.290Z,73.16
2022-08-27T08:58:20.282Z,73.25
2022-08-27T08:59:20.280Z,73.86
2022-08-27T09:00:20.291Z,74.05
2022-08-27T09:01:20.279Z,74.55
2022-08-27T09:02:20.255Z,74.55
2022-08-27T09:03:20.253Z,74.29
2022-08-27T09:04:20.233Z,74.16
2022-08-27T09:05:21.257Z,74.46
2022-08-27T09:06:21.221Z,73.62
2022-08-27T09:07:20.211Z,73.12
2022-08-27T09:08:37.714Z,73.42
2022-08-27T09:09:22.213Z,73.02
2022-08-27T09:10:20.212Z,73.32
2022-08-27T09:11:20.192Z,73.36
2022-08-27T09:12:20.200Z,73.56
2022-08-27T09:13:20.176Z,74.19
2022-08-27T09:14:20.172Z,74.79
2022-08-27T09:15:20.233Z,75.19
2022-08-27T09:16:20.209Z,75.19
2022-08-27T09:17:20.142Z,74.79
2022-08-27T09:18:20.464Z,74.79
2022-08-27T09:19:24.033Z,75.09
2022-08-27T09:20:20.171Z,75.33
2022-08-27T09:21:27.468Z,75.93
2022-08-27T09:22:21.112Z,76.13
2022-08-27T09:23:20.099Z,75.63
2022-08-27T09:24:20.102Z,75.29
2022-08-27T09:25:21.025Z,75.33
2022-08-27T09:26:21.129Z,75.73
2022-08-27T09:27:20.082Z,75.19
2022-08-27T09:28:20.065Z,75.39
2022-08-27T09:29:20.291Z,75.19
2022-08-27T09:30:20.169Z,75.73
2022-08-27T09:31:20.106Z,76.76
2022-08-27T09:32:20.290Z,78.41
2022-08-27T09:33:23.506Z,78.00
2022-08-27T09:34:21.025Z,77.97
2022-08-27T09:35:20.022Z,77.36
2022-08-27T09:36:23.606Z,76.83
2022-08-27T09:37:20.999Z,76.63
2022-08-27T09:38:19.998Z,75.93
2022-08-27T09:39:19.992Z,76.76
2022-08-27T09:40:22.662Z,76.53
2022-08-27T09:41:20.003Z,77.13
2022-08-27T09:42:19.969Z,75.93
2022-08-27T09:43:19.974Z,76.03
2022-08-27T09:44:53.722Z,75.59
2022-08-27T09:45:19.985Z,75.83
2022-08-27T09:46:20.047Z,75.93
2022-08-27T09:47:19.977Z,76.19
2022-08-27T09:48:19.958Z,76.06
2022-08-27T09:49:19.990Z,74.96
2022-08-27T09:50:19.970Z,74.46
2022-08-27T09:51:21.822Z,73.82
2022-08-27T09:52:19.930Z,73.82
2022-08-27T09:53:19.897Z,73.42
2022-08-27T09:54:19.904Z,73.62
2022-08-27T09:55:19.882Z,73.86
2022-08-27T09:56:19.929Z,73.72
2022-08-27T09:57:19.997Z,73.22
2022-08-27T09:58:19.877Z,73.62
2022-08-27T09:59:19.876Z,73.46
2022-08-27T10:00:19.877Z,74.55
2022-08-27T10:01:20.058Z,74.12
2022-08-27T10:02:19.902Z,73.72
2022-08-27T10:03:19.859Z,73.12
2022-08-27T10:04:19.906Z,73.02
2022-08-27T10:05:19.828Z,72.62
2022-08-27T10:06:19.813Z,72.92
2022-08-27T10:07:19.852Z,73.12
2022-08-27T10:08:19.835Z,71.99
2022-08-27T10:09:19.789Z,72.78
2022-08-27T10:10:19.920Z,71.42
2022-08-27T10:11:20.608Z,70.72
2022-08-27T10:12:19.806Z,69.89
2022-08-27T10:13:19.748Z,69.89
2022-08-27T10:14:19.915Z,69.49
2022-08-27T10:15:19.975Z,69.36
2022-08-27T10:16:22.760Z,69.26
2022-08-27T10:17:20.788Z,68.93
2022-08-27T10:18:19.759Z,69.23
2022-08-27T10:19:19.770Z,68.00
2022-08-27T10:20:24.314Z,67.60
2022-08-27T10:21:20.710Z,68.00
2022-08-27T10:22:19.753Z,67.93
2022-08-27T10:23:19.722Z,69.16
2022-08-27T10:24:19.715Z,69.09
2022-08-27T10:25:19.687Z,69.16
2022-08-27T10:26:19.741Z,69.46
2022-08-27T10:27:19.802Z,68.13
2022-08-27T10:28:20.646Z,68.03
2022-08-27T10:29:19.855Z,68.33
2022-08-27T10:30:19.739Z,67.30
2022-08-27T10:31:19.721Z,67.17
2022-08-27T10:32:19.749Z,70.46
2022-08-27T10:33:23.427Z,72.09
2022-08-27T10:34:20.624Z,71.72
2022-08-27T10:35:19.612Z,73.28
2022-08-27T10:36:19.632Z,71.95
2022-08-27T10:37:19.862Z,71.12
2022-08-27T10:38:19.615Z,70.92
2022-08-27T10:39:19.599Z,70.53
2022-08-27T10:40:19.740Z,70.59
2022-08-27T10:41:19.556Z,70.72
2022-08-27T10:42:19.566Z,71.29
2022-08-27T10:43:19.681Z,69.39
2022-08-27T10:44:19.577Z,69.39
2022-08-27T10:45:30.958Z,68.96
2022-08-27T10:46:24.965Z,69.53
2022-08-27T10:47:19.545Z,71.15
2022-08-27T10:48:19.626Z,70.65
2022-08-27T10:49:21.454Z,71.39
2022-08-27T10:50:19.509Z,71.32
2022-08-27T10:51:19.770Z,69.32
2022-08-27T10:52:19.513Z,69.32
2022-08-27T10:53:19.614Z,69.20
2022-08-27T10:54:19.486Z,69.89
2022-08-27T10:55:19.461Z,69.20
2022-08-27T10:56:20.129Z,70.89
2022-08-27T10:57:40.197Z,69.59
2022-08-27T10:58:21.541Z,70.23
2022-08-27T10:59:19.471Z,69.13
2022-08-27T11:00:19.461Z,71.59
2022-08-27T11:01:19.666Z,71.79
2022-08-27T11:02:19.545Z,70.79
2022-08-27T11:03:19.761Z,70.79
2022-08-27T11:04:19.482Z,70.99
2022-08-27T11:05:19.671Z,70.89
2022-08-27T11:06:19.458Z,70.99
2022-08-27T11:07:19.506Z,71.72
2022-08-27T11:08:19.463Z,72.26
2022-08-27T11:09:19.360Z,72.45
2022-08-27T11:10:21.100Z,73.19
2022-08-27T11:12:21.352Z,74.43
2022-08-27T11:13:19.342Z,74.33
2022-08-27T11:14:19.321Z,74.03
2022-08-27T11:15:19.313Z,73.59
2022-08-27T11:16:19.332Z,72.96
2022-08-27T11:17:19.384Z,72.66
2022-08-27T11:18:20.606Z,72.42
2022-08-27T11:19:19.317Z,71.59
2022-08-27T11:20:19.273Z,71.99
2022-08-27T11:21:19.264Z,71.62
2022-08-27T11:22:26.508Z,72.02
2022-08-27T11:23:20.285Z,72.02
2022-08-27T11:24:19.260Z,71.59
2022-08-27T11:25:19.243Z,72.09
2022-08-27T11:26:19.254Z,71.62
2022-08-27T11:27:19.233Z,71.62
2022-08-27T11:28:19.275Z,71.92
2022-08-27T11:29:20.215Z,72.32
2022-08-27T11:30:19.215Z,71.46
2022-08-27T11:31:19.218Z,72.76
2022-08-27T11:32:19.194Z,71.86
2022-08-27T11:33:19.217Z,73.13
2022-08-27T11:34:19.177Z,73.53
2022-08-27T11:35:19.176Z,73.89
2022-08-27T11:36:19.191Z,73.19
2022-08-27T11:37:19.158Z,73.59
2022-08-27T11:38:19.306Z,72.99
2022-08-27T11:39:19.141Z,72.69
2022-08-27T11:40:20.258Z,71.76
2022-08-27T11:41:19.136Z,72.06
2022-08-27T11:42:19.117Z,71.56
2022-08-27T11:43:19.177Z,71.49
2022-08-27T11:44:19.125Z,72.69
2022-08-27T11:45:19.108Z,73.03
2022-08-27T11:46:19.116Z,72.89
2022-08-27T11:47:20.105Z,73.03
2022-08-27T11:48:19.091Z,73.72
2022-08-27T11:49:19.130Z,73.33
2022-08-27T11:50:19.072Z,73.03
2022-08-27T11:51:19.095Z,73.19
2022-08-27T11:52:19.065Z,72.69
2022-08-27T11:53:19.061Z,71.86
2022-08-27T11:54:19.107Z,72.06
2022-08-27T11:55:19.304Z,72.13
2022-08-27T11:56:19.034Z,71.52
2022-08-27T11:57:19.030Z,71.52
2022-08-27T11:58:19.026Z,71.42
2022-08-27T11:59:19.019Z,71.83
2022-08-27T12:00:19.068Z,71.42
2022-08-27T12:01:19.035Z,70.92
2022-08-27T12:02:18.997Z,71.66
2022-08-27T12:03:19.074Z,72.06
2022-08-27T12:04:19.016Z,71.79
2022-08-27T12:05:22.056Z,72.09
2022-08-27T12:06:18.966Z,72.33
2022-08-27T12:07:19.005Z,72.89
2022-08-27T12:08:18.944Z,73.09
2022-08-27T12:09:18.963Z,71.79
2022-08-27T12:10:18.935Z,72.79
2022-08-27T12:11:18.969Z,71.96
2022-08-27T12:12:20.535Z,71.59
2022-08-27T12:13:18.936Z,72.49
2022-08-27T12:14:18.910Z,72.39
2022-08-27T12:15:18.974Z,73.33
2022-08-27T12:16:18.983Z,72.29
2022-08-27T12:17:18.905Z,72.59
2022-08-27T12:18:18.877Z,71.96
2022-08-27T12:19:18.877Z,71.96
2022-08-27T12:20:18.878Z,71.76
2022-08-27T12:21:18.861Z,71.42
2022-08-27T12:22:18.908Z,71.22
2022-08-27T12:23:18.854Z,71.42
2022-08-27T12:24:18.843Z,71.42
2022-08-27T12:25:18.862Z,70.79
2022-08-27T12:26:18.814Z,70.79
2022-08-27T12:27:18.866Z,69.93
2022-08-27T12:28:18.807Z,70.53
2022-08-27T12:29:18.820Z,69.79
2022-08-27T12:30:18.802Z,70.69
2022-08-27T12:31:18.837Z,70.49
2022-08-27T12:32:18.781Z,71.76
2022-08-27T12:33:18.818Z,71.52
2022-08-27T12:34:18.789Z,70.96
2022-08-27T12:35:18.757Z,71.62
2022-08-27T12:36:27.624Z,70.69
2022-08-27T12:37:19.797Z,70.49
2022-08-27T12:38:18.833Z,71.12
2022-08-27T12:39:18.746Z,70.83
2022-08-27T12:40:19.914Z,71.36
2022-08-27T12:41:19.654Z,71.59
2022-08-27T12:42:19.714Z,70.89
2022-08-27T12:43:18.730Z,71.99
2022-08-27T12:44:18.731Z,72.19
2022-08-27T12:45:18.713Z,70.66
2022-08-27T12:46:18.719Z,69.43
2022-08-27T12:47:18.688Z,69.23
2022-08-27T12:48:18.673Z,69.20
2022-08-27T12:49:36.891Z,70.29
2022-08-27T12:50:19.654Z,68.99
2022-08-27T12:51:18.724Z,68.59
2022-08-27T12:52:18.663Z,67.96
2022-08-27T12:53:18.642Z,68.40